• Join FlightAware (Why Join?)
  • Login
  • US Flag 
02:14AM EDT


 

Airport Tracker/Info


-or-


 

Live Flight TrackerFlight Track Log ✈ SKW7367 ✈ 2013년 Nov 19일 ✈ KDTW - KAPN

Flight Track Log - Related Links

Times and Time Zones

All times are in EST time to prevent confusion due to time zone crossing. See the SKW7367 flight status page for this flight to view local times or setup timezone preferences in your user account.

Time Position Orientation Groundspeed Altitude Reporting Facility
EST Latitude Longitude Course Direction KTS MPH feet Rate Location/Type
03:58PM 42.2106 -83.3650 North 154 177 1,200  Level Cleveland Center
04:00PM 42.1156 -83.5036 227° Southwest 272 313 7,000 2,760 Climbing Cleveland Center
04:00PM 42.1100 -83.5122 229° Southwest 268 308 7,600 1,620 Climbing Cleveland Center
04:01PM 42.5827 -83.3790 North  Level Estimated
04:01PM 42.1364 -83.5864 296° West 273 314 9,000  Level Cleveland Center
04:02PM 42.6753 -83.3855 340° North  Level Estimated
04:02PM 42.1917 -83.6553 317° Northwest 255 293 9,000  Level Cleveland Center
04:02PM 42.2017 -83.6644 326° Northwest 260 299 9,000 1,740 Level Cleveland Center
04:03PM 42.7679 -83.3920 North  Level Estimated
04:03PM 42.2622 -83.6628 North 270 311 10,800  Level Cleveland Center
04:03PM 42.2772 -83.6583 12° North 269 310 11,100 1,200 Climbing Cleveland Center
04:04PM 42.3681 -83.6364 10° North 330 380 12,300 1,140 Climbing Cleveland Center
04:05PM 42.4611 -83.5900 20° North 352 405 13,500 1,080 Climbing Cleveland Center
04:06PM 42.5522 -83.5453 20° North 348 400 14,600 720 Climbing Cleveland Center
04:07PM 42.6500 -83.4969 20° North 363 418 15,000 180 Climbing Cleveland Center
04:08PM 42.7511 -83.4458 20° North 382 440 15,000  Level Cleveland Center
04:09PM 42.8506 -83.3964 20° North 383 441 15,000  Level Cleveland Center
04:10PM 42.9731 -83.3644 11° North 380 437 15,000  Level Cleveland Center
04:11PM 43.0747 -83.3725 357° North 371 427 15,000  Level Cleveland Center
04:12PM 43.1447 -83.4719 314° West 366 421 15,000  Level Cleveland Center
04:13PM 43.2161 -83.5694 315° West 362 417 15,000  Level Cleveland Center
04:14PM 43.3186 -83.5847 354° North 372 428 15,000  Level Cleveland Center
04:15PM 43.4417 -83.5828 North 370 426 15,000  Level Cleveland Center
04:16PM 43.5456 -83.5800 North 373 429 15,000  Level Cleveland Center
04:17PM 43.6486 -83.5792 360° North 371 427 15,000  Level Cleveland Center
04:18PM 43.7561 -83.5769 North 373 429 15,000  Level Minneapolis Center
04:20PM 43.8586 -83.5756 North 371 427 15,000  Level Minneapolis Center
04:21PM 43.9725 -83.5736 North 373 429 15,000 -120 Level Minneapolis Center
04:22PM 44.0811 -83.5728 360° North 366 421 14,800 -600 Descending Minneapolis Center
04:23PM 44.1797 -83.5694 North 361 415 13,800 -1,140 Descending Minneapolis Center
04:24PM 44.2817 -83.5694 360° North 345 397 12,500 -1,140 Descending Minneapolis Center
04:25PM 44.3625 -83.5692 360° North 293 337 11,500 -1,260 Descending Minneapolis Center
04:26PM 44.4386 -83.5683 360° North 259 298 9,900 -1,440 Descending Minneapolis Center
04:27PM 44.5111 -83.5664 North 262 302 8,600 -1,320 Descending Minneapolis Center
04:28PM 44.5883 -83.5653 North 260 299 7,200 -1,260 Descending Minneapolis Center
04:29PM 44.6650 -83.5631 North 258 297 6,000 -1,080 Descending Minneapolis Center
04:30PM 44.7369 -83.5625 360° North 261 300 5,000 -1,020 Descending Minneapolis Center
04:31PM 44.8103 -83.5614 North 252 290 3,900 -780 Descending Minneapolis Center
04:32PM 44.8683 -83.5606 North 217 250 3,400 -540 Descending Minneapolis Center
04:33PM 44.9275 -83.5597 North 202 232 2,800 -360 Descending Minneapolis Center
04:34PM 44.9783 -83.5608 359° North 191 220 2,700 -540 Descending Minneapolis Center
04:35PM 45.0175 -83.5608 360° North 138 159 1,800 -840 Descending Minneapolis Center
04:36PM 45.0542 -83.5611 360° North 134 154 1,000 -540 Descending Minneapolis Center
04:37PM 45.0878 -83.5606 North 132 152 700 -300 Descending Minneapolis Center